Aeroporto :
LOGIN :

Iscrizione | Disclaimer

   EN    FR    IT 

 










Sommario :    VFR   VFR Marginale   IFR   IFR Intensivo   IFR Molto Intensivo
Visibilità : 
Base nubi : 
>= 8 km
>= 3000ft
5 / 8 km
1000 / 3000 ft
1500m / 5 km
500 / 1000 ft
800 / 1500m
200 / 500 ft
< 800m
< 200 ft
Simboli :   Temporali  Nebbia  Neve Forte  Precipitazioni Forti  Vento > 20 kt
SIGMETs :   Varie  Temporali  Ghiacco  Turbolenza  Onda orograficha  Ceneri Vulcaniche






- Altitudine del aeroporto : 2595 ft
- Codice IATA : SLM


LESA - Salamanca Matacan

ULTIMO METAR :
  • 101830Z 25007KT 220V290 9999 FEW090TCU 31/07 Q1012

METARs OBSOLETI :
  • 101800Z 23010KT 200V260 9999 FEW090TCU 32/05 Q1012
  • 101730Z 23009KT 190V250 CAVOK 33/06 Q1012
  • 101700Z 22011KT 160V250 CAVOK 33/04 Q1012
  • 101630Z 23009KT 190V270 CAVOK 34/06 Q1012
  • 101600Z 21010KT 170V260 CAVOK 33/05 Q1012

TAF TAF LESA
Valido dal 10 a 15 ore il 11 a 15 ore UTC


101400Z 1015/1115 19008KT CAVOK TX35/1016Z TN12/1106Z
PROB30
TEMPO 1015/1021 16010KT FEW040TCU
BECMG 1023/1101 VRB05KT
TEMPO 1110/1115 FEW040TCU
PROB40
TEMPO 1111/1115 VRB15G30KT 3000 TS SHRA SCT040CB
PROB30
TEMPO 1113/1115 VRB15G40KT 1200 TSGR SCT040CB



MetMap, La meteo Aeronautica in un colpo d'occhio ! - Copyright ORBIFLY Dicembre 2007 - Disclaimer

ORBIFLY MET'MAP TEAM :

Programmazione e sviluppo : Alexandra Zaïnal
Concezione : Baudouin d'Aumeries
Aiuto per la programmazione : Marc-Olivier Méhu
Supporto tecnico e logistico : Manuel Goepfert
Aiuto per la traduzione : Arnaldo La Scala

Contatto : metmap@orbifly.com




FONTI E CREDITI :

   NOAA